Time;durP1;ratioP1;P1;durP2;ratioP2;P2;SDS_P1;SDS_P2;PMS_P1;PMS_P2;Temp;Humidity;BMP_temperature;BMP_pressure;BME280_temperature;BME280_humidity;BME280_pressure;Samples;Min_cycle;Max_cycle;Signal;HPM_P1;HPM_P2
2021/12/23 00:02:24;;;;;;;53.67;21.95;;;3.70;99.90;;;;;;4993006;28;20689;-91
2021/12/23 00:04:50;;;;;;;40.42;19.15;;;3.70;99.90;;;;;;4977000;28;20133;-92
2021/12/23 00:07:16;;;;;;;34.00;19.65;;;3.70;99.90;;;;;;4992953;28;20539;-91
2021/12/23 00:10:23;;;;;;;48.70;22.52;;;3.70;99.90;;;;;;4992709;28;20460;-92
2021/12/23 00:12:30;;;;;;;52.17;21.90;;;3.70;99.90;;;;;;4987430;28;20030;-92
2021/12/23 00:14:56;;;;;;;43.92;20.58;;;3.70;99.90;;;;;;4977051;28;20234;-93
2021/12/23 00:17:38;;;;;;;50.20;23.20;;;3.70;99.90;;;;;;4993138;28;20046;-91
2021/12/23 00:25:18;;;;;;;53.15;24.08;;;3.80;99.90;;;;;;4994188;28;20092;-92
2021/12/23 00:27:44;;;;;;;51.97;23.50;;;3.70;99.90;;;;;;4976211;28;20022;-92
2021/12/23 00:30:10;;;;;;;43.53;20.17;;;3.70;99.90;;;;;;4976886;28;20368;-90
2021/12/23 00:32:37;;;;;;;47.90;23.02;;;3.80;99.90;;;;;;4984637;28;20030;-90
2021/12/23 00:35:04;;;;;;;43.45;20.85;;;3.80;99.90;;;;;;4977012;28;20046;-89
2021/12/23 00:37:39;;;;;;;56.65;23.60;;;3.80;99.90;;;;;;4983702;28;20065;-91
2021/12/23 00:40:07;;;;;;;52.13;25.00;;;3.80;99.90;;;;;;4976769;28;20025;-90
2021/12/23 00:42:34;;;;;;;52.28;25.02;;;3.80;99.90;;;;;;4976250;28;20177;-92
2021/12/23 00:45:00;;;;;;;54.13;25.40;;;3.80;99.90;;;;;;4976830;28;20492;-92
2021/12/23 00:47:26;;;;;;;44.35;20.98;;;3.80;99.90;;;;;;4976726;28;20056;-91
2021/12/23 00:49:51;;;;;;;54.60;24.92;;;3.80;99.90;;;;;;4976667;28;20117;-92
2021/12/23 00:52:24;;;;;;;52.92;24.95;;;3.80;99.90;;;;;;4975949;28;20182;-91
2021/12/23 00:54:49;;;;;;;53.25;25.17;;;3.80;99.90;;;;;;4993683;28;20027;-90
2021/12/23 00:57:15;;;;;;;57.33;25.67;;;3.80;99.90;;;;;;4993146;28;20044;-91
2021/12/23 00:59:41;;;;;;;58.47;25.23;;;3.80;99.90;;;;;;4977189;28;20027;-92
2021/12/23 01:02:09;;;;;;;58.25;24.10;;;3.80;99.90;;;;;;4977397;28;20039;-92
2021/12/23 01:04:35;;;;;;;60.08;25.17;;;3.80;99.90;;;;;;4993212;28;20034;-91
2021/12/23 01:07:01;;;;;;;44.05;20.77;;;3.80;99.90;;;;;;4977288;28;20026;-92
2021/12/23 01:09:26;;;;;;;57.47;26.77;;;3.90;99.90;;;;;;4977170;28;20156;-91
2021/12/23 01:11:54;;;;;;;44.65;21.83;;;3.90;99.90;;;;;;4977581;28;20022;-91
2021/12/23 01:19:23;;;;;;;51.17;23.80;;;3.90;99.90;;;;;;4994629;28;20038;-91
2021/12/23 01:21:50;;;;;;;63.63;27.33;;;3.90;99.90;;;;;;4977269;28;20085;-91
2021/12/23 01:24:16;;;;;;;57.45;26.02;;;3.90;99.90;;;;;;4977167;28;20510;-92
2021/12/23 01:26:44;;;;;;;60.47;26.67;;;3.90;99.90;;;;;;4977437;28;20026;-91
2021/12/23 01:29:12;;;;;;;60.25;27.58;;;4.00;99.90;;;;;;4979289;28;20022;-90
2021/12/23 01:31:39;;;;;;;53.53;25.77;;;4.00;99.90;;;;;;4964347;28;20096;-91
2021/12/23 01:34:06;;;;;;;54.00;26.42;;;4.00;99.90;;;;;;4975548;28;20031;-92
2021/12/23 01:36:32;;;;;;;48.05;24.60;;;4.00;99.90;;;;;;4976988;28;20037;-92
2021/12/23 01:38:58;;;;;;;55.35;26.58;;;3.90;99.90;;;;;;4976978;28;20026;-92
2021/12/23 01:41:26;;;;;;;59.20;26.45;;;4.00;99.90;;;;;;4976889;28;20034;-93
2021/12/23 01:43:53;;;;;;;60.88;27.85;;;4.00;99.90;;;;;;4977858;28;20061;-90
2021/12/23 01:46:19;;;;;;;56.45;26.55;;;4.00;99.90;;;;;;4977381;28;20018;-91
2021/12/23 01:48:45;;;;;;;40.65;20.23;;;4.00;99.90;;;;;;4977289;28;20026;-91
2021/12/23 01:51:11;;;;;;;55.53;26.27;;;4.00;99.90;;;;;;4977765;28;20034;-91
2021/12/23 01:53:37;;;;;;;44.45;19.92;;;4.00;99.90;;;;;;4977090;28;20058;-92
2021/12/23 01:56:03;;;;;;;48.38;24.23;;;4.00;99.90;;;;;;5002118;28;20019;-91
2021/12/23 01:58:29;;;;;;;60.22;26.35;;;4.10;99.90;;;;;;5003603;28;20029;-90
2021/12/23 02:00:55;;;;;;;57.00;26.77;;;4.10;99.90;;;;;;5001201;28;20472;-91
2021/12/23 02:03:21;;;;;;;70.22;28.63;;;4.10;99.90;;;;;;4998769;28;20042;-91
2021/12/23 02:05:47;;;;;;;67.93;28.67;;;4.10;99.90;;;;;;5000797;28;20085;-90
2021/12/23 02:08:13;;;;;;;64.60;28.13;;;4.10;99.90;;;;;;4997299;28;20038;-90
2021/12/23 02:10:41;;;;;;;67.28;28.58;;;4.10;99.90;;;;;;4997169;28;20029;-90
2021/12/23 02:13:07;;;;;;;65.20;28.95;;;4.10;99.90;;;;;;4997223;28;20510;-91
2021/12/23 02:15:33;;;;;;;70.72;29.73;;;4.10;99.90;;;;;;4997083;28;20109;-91
2021/12/23 02:17:59;;;;;;;71.78;31.02;;;4.10;99.90;;;;;;4997202;28;20030;-90
2021/12/23 02:20:29;;;;;;;68.70;31.90;;;4.20;99.90;;;;;;4997027;28;20057;-90
2021/12/23 02:22:55;;;;;;;68.40;29.25;;;4.20;99.90;;;;;;4996925;28;20046;-90
2021/12/23 02:25:21;;;;;;;57.78;25.30;;;4.30;99.90;;;;;;4982124;28;20065;-91
2021/12/23 02:27:49;;;;;;;76.07;30.05;;;4.40;99.90;;;;;;4997968;28;20030;-90
2021/12/23 02:35:24;;;;;;;69.47;29.60;;;4.40;99.90;;;;;;4979134;28;20030;-89
2021/12/23 02:37:50;;;;;;;52.85;25.27;;;4.40;99.90;;;;;;4995717;28;20498;-90
2021/12/23 02:40:25;;;;;;;66.60;30.10;;;4.40;99.90;;;;;;4995511;28;20518;-89
2021/12/23 02:42:51;;;;;;;73.38;30.48;;;4.40;99.90;;;;;;4995066;28;20055;-90
2021/12/23 02:45:16;;;;;;;72.55;30.50;;;4.40;99.90;;;;;;4995251;28;20498;-90
2021/12/23 02:47:42;;;;;;;53.42;26.10;;;4.40;99.90;;;;;;4995313;28;20034;-90
2021/12/23 02:50:09;;;;;;;56.97;25.95;;;4.40;99.90;;;;;;4995701;28;20107;-90
2021/12/23 02:52:36;;;;;;;77.32;29.73;;;4.30;99.90;;;;;;4996104;28;20057;-92
2021/12/23 02:55:03;;;;;;;71.95;30.95;;;4.40;99.90;;;;;;4995778;28;20033;-89
2021/12/23 02:57:32;;;;;;;66.53;28.92;;;4.40;99.90;;;;;;4995352;28;20030;-89
2021/12/23 02:59:58;;;;;;;67.35;28.00;;;4.30;99.90;;;;;;4995782;28;20105;-91
2021/12/23 03:02:24;;;;;;;69.78;29.25;;;4.40;99.90;;;;;;5002077;28;20031;-92
2021/12/23 03:04:49;;;;;;;70.80;29.40;;;4.40;99.90;;;;;;5008011;28;20030;-92
2021/12/23 03:07:15;;;;;;;67.95;29.88;;;4.40;99.90;;;;;;4987753;28;20030;-89
2021/12/23 03:09:45;;;;;;;68.97;29.55;;;4.40;99.90;;;;;;4989757;28;20031;-92
2021/12/23 03:12:10;;;;;;;69.97;32.70;;;4.40;99.90;;;;;;4983507;28;20030;-92
2021/12/23 03:14:36;;;;;;;67.35;29.40;;;4.40;99.90;;;;;;4980679;28;20129;-91
2021/12/23 03:17:02;;;;;;;62.65;29.30;;;4.40;99.90;;;;;;5002278;28;20026;-91
2021/12/23 03:19:28;;;;;;;60.25;27.73;;;4.40;99.90;;;;;;5001504;28;20026;-92
2021/12/23 03:21:54;;;;;;;83.53;32.08;;;4.40;99.90;;;;;;4995599;28;20031;-91
2021/12/23 03:24:20;;;;;;;74.57;30.65;;;4.40;99.90;;;;;;4995643;28;20053;-91
2021/12/23 03:26:46;;;;;;;69.13;29.67;;;4.40;99.90;;;;;;4995548;28;20030;-91
2021/12/23 03:29:12;;;;;;;78.15;33.67;;;4.40;99.90;;;;;;4995438;28;20023;-91
2021/12/23 03:31:39;;;;;;;73.95;30.52;;;4.40;99.90;;;;;;4995503;28;20045;-92
2021/12/23 03:34:05;;;;;;;72.15;31.00;;;4.50;99.90;;;;;;4995266;28;20062;-91
2021/12/23 03:36:32;;;;;;;79.35;32.63;;;4.50;99.90;;;;;;4994824;28;20077;-90
2021/12/23 03:38:58;;;;;;;88.05;35.25;;;4.50;99.90;;;;;;4995258;28;20026;-91
2021/12/23 03:41:24;;;;;;;75.05;30.80;;;4.50;99.90;;;;;;4994723;28;20084;-91
2021/12/23 03:43:49;;;;;;;77.95;33.28;;;4.50;99.90;;;;;;4994683;28;20050;-91
2021/12/23 03:46:15;;;;;;;69.28;30.73;;;4.50;99.90;;;;;;4995226;28;20050;-91
2021/12/23 03:48:41;;;;;;;77.80;30.48;;;4.50;99.90;;;;;;4994874;28;20026;-92
2021/12/23 03:51:07;;;;;;;77.05;31.30;;;4.60;99.90;;;;;;4993972;28;20120;-91
2021/12/23 03:53:32;;;;;;;73.75;30.90;;;4.60;99.90;;;;;;4993931;28;20026;-91
2021/12/23 03:55:58;;;;;;;75.10;32.45;;;4.60;99.90;;;;;;4979082;28;20034;-91
2021/12/23 03:58:24;;;;;;;73.05;30.23;;;4.70;99.90;;;;;;4977590;28;20042;-91
2021/12/23 04:00:50;;;;;;;72.45;30.60;;;4.70;99.90;;;;;;4977720;28;20030;-91
2021/12/23 04:03:16;;;;;;;71.43;32.65;;;4.70;99.90;;;;;;4977565;28;20101;-90
2021/12/23 04:05:42;;;;;;;76.15;30.73;;;4.70;99.90;;;;;;4978337;28;20046;-92
2021/12/23 04:08:08;;;;;;;80.40;32.05;;;4.70;99.90;;;;;;4977938;28;20029;-91
2021/12/23 04:10:35;;;;;;;87.75;32.47;;;4.80;99.90;;;;;;4977926;28;20109;-91
2021/12/23 04:13:01;;;;;;;77.47;31.98;;;4.80;99.90;;;;;;4978008;28;20337;-91
2021/12/23 04:15:27;;;;;;;71.35;30.38;;;4.80;99.90;;;;;;4978128;28;20061;-91
2021/12/23 04:17:52;;;;;;;72.68;32.33;;;4.80;99.90;;;;;;4978178;28;20030;-91
2021/12/23 04:20:22;;;;;;;76.78;32.95;;;4.70;99.90;;;;;;4978188;28;20022;-91
2021/12/23 04:22:52;;;;;;;83.10;31.90;;;4.80;99.90;;;;;;4977594;28;20097;-91
2021/12/23 04:25:19;;;;;;;75.45;31.90;;;4.80;99.90;;;;;;4977817;28;20022;-90
2021/12/23 04:27:47;;;;;;;83.22;33.25;;;4.70;99.90;;;;;;4977444;28;20061;-92
2021/12/23 04:30:15;;;;;;;78.10;33.88;;;4.80;99.90;;;;;;4977492;28;20027;-91
2021/12/23 04:32:41;;;;;;;84.40;33.65;;;4.80;99.90;;;;;;4977474;28;20038;-91
2021/12/23 04:35:08;;;;;;;86.25;34.85;;;4.70;99.90;;;;;;4977294;28;20042;-91
2021/12/23 04:37:34;;;;;;;90.03;34.90;;;4.80;99.90;;;;;;4978113;28;20118;-91
2021/12/23 04:40:01;;;;;;;79.22;32.78;;;4.80;99.90;;;;;;4977489;28;20026;-90
2021/12/23 04:42:26;;;;;;;74.05;31.52;;;4.80;99.90;;;;;;4977560;28;20042;-90
2021/12/23 04:44:52;;;;;;;65.05;28.42;;;4.80;99.90;;;;;;4977035;28;20108;-88
2021/12/23 04:47:18;;;;;;;85.10;34.33;;;4.80;99.90;;;;;;4977115;28;20117;-90
2021/12/23 04:49:44;;;;;;;80.07;31.00;;;4.80;99.90;;;;;;4977341;28;20026;-90
2021/12/23 04:52:09;;;;;;;80.95;33.30;;;4.80;99.90;;;;;;4977145;28;20088;-91
2021/12/23 04:54:35;;;;;;;82.38;34.58;;;4.80;99.90;;;;;;4977328;28;20022;-90
2021/12/23 04:57:01;;;;;;;79.10;33.65;;;4.80;99.90;;;;;;4979182;28;20614;-92
2021/12/23 04:59:26;;;;;;;88.88;32.95;;;4.80;99.90;;;;;;4984976;28;20026;-91
2021/12/23 05:01:52;;;;;;;83.90;33.20;;;4.80;99.90;;;;;;4978590;28;20037;-91
2021/12/23 05:04:18;;;;;;;87.25;32.95;;;4.70;99.90;;;;;;4989178;28;20125;-91
2021/12/23 05:06:43;;;;;;;88.25;33.88;;;4.80;99.90;;;;;;4987557;28;20121;-91
2021/12/23 05:09:09;;;;;;;90.65;33.85;;;4.70;99.90;;;;;;4988958;28;20030;-91
2021/12/23 05:11:35;;;;;;;91.57;35.92;;;4.70;99.90;;;;;;4994731;28;20041;-91
2021/12/23 05:14:00;;;;;;;91.43;33.72;;;4.70;99.90;;;;;;4980293;28;20034;-90
2021/12/23 05:16:26;;;;;;;87.60;34.95;;;4.70;99.90;;;;;;4981029;28;20665;-91
2021/12/23 05:18:52;;;;;;;96.55;36.53;;;4.70;99.90;;;;;;4981683;28;20142;-91
2021/12/23 05:21:17;;;;;;;91.28;35.50;;;4.70;99.90;;;;;;4991068;28;20053;-90
2021/12/23 05:23:43;;;;;;;92.10;35.97;;;4.70;99.90;;;;;;4997157;28;20530;-90
2021/12/23 05:26:09;;;;;;;97.80;36.60;;;4.70;99.90;;;;;;4994404;28;20046;-90
2021/12/23 05:28:36;;;;;;;98.07;34.75;;;4.80;99.90;;;;;;4997380;28;20040;-91
2021/12/23 05:31:08;;;;;;;99.95;36.42;;;4.70;99.90;;;;;;4996489;28;20031;-90
2021/12/23 05:33:34;;;;;;;86.63;33.63;;;4.80;99.90;;;;;;5005114;28;20027;-90
2021/12/23 05:35:59;;;;;;;88.82;35.22;;;4.80;99.90;;;;;;4980779;28;20039;-90
2021/12/23 05:38:25;;;;;;;77.90;31.35;;;4.80;99.90;;;;;;4993095;28;20034;-91
2021/12/23 05:41:00;;;;;;;89.57;35.47;;;4.80;99.90;;;;;;4983595;28;20042;-90
2021/12/23 05:43:26;;;;;;;76.82;31.23;;;4.70;99.90;;;;;;4978961;28;20105;-91
2021/12/23 05:45:51;;;;;;;98.82;37.58;;;4.70;99.90;;;;;;4990556;28;20432;-91
2021/12/23 05:48:17;;;;;;;98.25;36.50;;;4.70;99.90;;;;;;4981935;28;20542;-91
2021/12/23 05:50:42;;;;;;;87.68;33.28;;;4.80;99.90;;;;;;4982882;28;20026;-91
2021/12/23 05:53:08;;;;;;;82.50;32.33;;;4.80;99.90;;;;;;4982032;28;20025;-91
2021/12/23 05:58:20;;;;;;;105.78;38.85;;;4.80;99.90;;;;;;4998840;28;20026;-91
2021/12/23 06:00:46;;;;;;;98.68;36.60;;;4.80;99.90;;;;;;4981628;28;20038;-91
2021/12/23 06:03:11;;;;;;;106.93;37.97;;;4.80;99.90;;;;;;4981395;28;20034;-91
2021/12/23 06:05:37;;;;;;;90.40;37.28;;;4.80;99.90;;;;;;4981391;28;20521;-92
2021/12/23 06:08:03;;;;;;;95.75;35.58;;;4.80;99.90;;;;;;4981361;28;20117;-91
2021/12/23 06:10:29;;;;;;;95.07;35.03;;;4.80;99.90;;;;;;4981098;28;20030;-91
2021/12/23 06:12:54;;;;;;;94.10;36.50;;;4.80;99.90;;;;;;4980462;28;20036;-92
2021/12/23 06:15:20;;;;;;;90.93;34.92;;;4.80;99.90;;;;;;4980657;28;20053;-91
2021/12/23 06:17:46;;;;;;;93.90;35.30;;;4.80;99.90;;;;;;4980359;28;20162;-91
2021/12/23 06:20:12;;;;;;;114.38;38.65;;;4.80;99.90;;;;;;4980298;28;20026;-91
2021/12/23 06:22:38;;;;;;;102.60;36.50;;;4.80;99.90;;;;;;4979862;28;20066;-90
2021/12/23 06:25:07;;;;;;;102.38;36.42;;;4.70;99.90;;;;;;4980274;28;20034;-91
2021/12/23 06:27:33;;;;;;;109.70;37.85;;;4.80;99.90;;;;;;4980074;28;20046;-90
2021/12/23 06:29:59;;;;;;;116.32;38.28;;;4.80;99.90;;;;;;4980120;28;20026;-90
2021/12/23 06:32:25;;;;;;;93.13;35.08;;;4.80;99.90;;;;;;4979828;28;20034;-91
2021/12/23 06:34:51;;;;;;;111.90;39.88;;;4.80;99.90;;;;;;4980096;28;20037;-90
2021/12/23 06:37:17;;;;;;;116.13;38.90;;;4.80;99.90;;;;;;4979037;28;20376;-90
2021/12/23 06:39:44;;;;;;;106.13;37.22;;;4.80;99.90;;;;;;4979776;28;20019;-90
2021/12/23 06:42:10;;;;;;;116.10;39.42;;;4.80;99.90;;;;;;4979933;28;20066;-90
2021/12/23 06:44:35;;;;;;;118.57;38.25;;;4.80;99.90;;;;;;4978705;28;20119;-91
2021/12/23 06:47:02;;;;;;;111.55;39.28;;;4.80;99.90;;;;;;4995819;28;20484;-91
2021/12/23 06:49:31;;;;;;;108.45;37.65;;;4.80;99.90;;;;;;4979265;28;20463;-91
2021/12/23 06:51:57;;;;;;;118.40;41.35;;;4.80;99.90;;;;;;5005527;28;20042;-90
2021/12/23 06:54:23;;;;;;;121.75;40.65;;;4.90;99.90;;;;;;4986134;28;20048;-91
2021/12/23 06:56:49;;;;;;;111.38;36.85;;;4.90;99.90;;;;;;4980818;28;20097;-91
2021/12/23 06:59:16;;;;;;;108.75;37.00;;;4.90;99.90;;;;;;4989585;28;20089;-91
2021/12/23 07:01:42;;;;;;;113.35;39.00;;;4.90;99.90;;;;;;4994971;28;20030;-91
2021/12/23 07:04:16;;;;;;;116.50;39.08;;;4.90;99.90;;;;;;4978715;28;20034;-92
2021/12/23 07:07:08;;;;;;;115.85;39.80;;;4.90;99.90;;;;;;4979203;28;20018;-92
2021/12/23 07:09:35;;;;;;;110.47;37.00;;;4.90;99.90;;;;;;4978899;28;20026;-92
2021/12/23 07:12:01;;;;;;;111.22;37.72;;;4.90;99.90;;;;;;4978478;28;20018;-92
2021/12/23 07:14:26;;;;;;;114.93;37.92;;;4.90;99.90;;;;;;4978697;28;20045;-92
2021/12/23 07:16:52;;;;;;;121.32;37.25;;;4.90;99.90;;;;;;4978886;28;20030;-92
2021/12/23 07:19:18;;;;;;;103.40;34.88;;;5.00;99.90;;;;;;4979994;28;20030;-92
2021/12/23 07:21:43;;;;;;;113.28;39.13;;;5.00;99.90;;;;;;4985653;28;20100;-92
2021/12/23 07:24:10;;;;;;;108.95;37.30;;;4.90;99.90;;;;;;4981515;28;20042;-92
2021/12/23 07:26:36;;;;;;;115.82;37.75;;;5.00;99.90;;;;;;4979555;28;20023;-93
2021/12/23 07:29:02;;;;;;;120.50;38.25;;;5.00;99.90;;;;;;4978649;28;20515;-93
2021/12/23 07:31:27;;;;;;;107.45;37.47;;;5.00;99.90;;;;;;4977887;28;20014;-92
2021/12/23 07:33:53;;;;;;;112.82;37.60;;;5.00;99.90;;;;;;4977018;28;20076;-92
2021/12/23 07:36:22;;;;;;;108.20;37.83;;;5.00;99.90;;;;;;4977530;28;20037;-92
2021/12/23 07:38:49;;;;;;;115.65;37.95;;;5.00;99.90;;;;;;4986315;28;20038;-92
2021/12/23 07:41:15;;;;;;;118.03;38.33;;;5.00;99.90;;;;;;4976886;28;20029;-92
2021/12/23 07:46:10;;;;;;;113.90;38.63;;;5.00;99.90;;;;;;5001286;28;20022;-91
2021/12/23 07:48:36;;;;;;;112.72;38.65;;;5.00;99.90;;;;;;4983483;28;20471;-92
2021/12/23 07:51:03;;;;;;;117.72;39.22;;;5.00;99.90;;;;;;4995533;28;20029;-91
2021/12/23 07:53:29;;;;;;;122.70;39.75;;;5.10;99.90;;;;;;4979596;28;20030;-91
2021/12/23 07:55:55;;;;;;;119.85;39.65;;;5.10;99.90;;;;;;4978691;28;20030;-92
2021/12/23 07:58:21;;;;;;;113.30;38.75;;;5.20;99.90;;;;;;4980559;28;20023;-90
2021/12/23 08:00:47;;;;;;;109.82;35.88;;;5.20;99.90;;;;;;4978091;28;20475;-92
2021/12/23 08:03:13;;;;;;;114.43;38.72;;;5.30;99.90;;;;;;4978241;28;20064;-91
2021/12/23 08:05:41;;;;;;;121.50;37.72;;;5.30;99.90;;;;;;4978473;28;20491;-93
2021/12/23 08:08:07;;;;;;;105.82;37.28;;;5.30;99.90;;;;;;4976002;28;20026;-94
2021/12/23 08:10:33;;;;;;;99.80;34.55;;;5.40;99.90;;;;;;4978377;28;20029;-93
2021/12/23 08:12:59;;;;;;;108.35;36.10;;;5.40;99.90;;;;;;4979125;28;20042;-92
2021/12/23 08:15:25;;;;;;;103.75;35.58;;;5.40;99.90;;;;;;4978926;28;20587;-93
2021/12/23 08:17:51;;;;;;;101.65;35.28;;;5.30;99.90;;;;;;4979056;28;20124;-92
2021/12/23 08:20:17;;;;;;;105.65;38.28;;;5.30;99.90;;;;;;4977678;28;20085;-93
2021/12/23 08:22:44;;;;;;;104.80;34.95;;;5.30;99.90;;;;;;4977525;28;20034;-93
2021/12/23 08:25:11;;;;;;;97.72;34.47;;;5.30;99.90;;;;;;4976614;28;20015;-93
2021/12/23 08:27:37;;;;;;;102.80;34.05;;;5.30;99.90;;;;;;4977179;28;20030;-93
2021/12/23 08:30:06;;;;;;;96.38;35.63;;;5.20;99.90;;;;;;4962746;28;20031;-92
2021/12/23 08:32:32;;;;;;;92.85;32.55;;;5.20;99.90;;;;;;4978754;28;20034;-93
2021/12/23 08:34:58;;;;;;;91.18;31.90;;;5.20;99.90;;;;;;4990328;28;20117;-92
2021/12/23 08:37:23;;;;;;;98.63;34.53;;;5.20;99.90;;;;;;4979867;28;20083;-92
2021/12/23 08:39:50;;;;;;;106.15;36.90;;;5.20;99.90;;;;;;4977993;28;20023;-93
2021/12/23 08:42:16;;;;;;;92.88;32.55;;;5.20;99.90;;;;;;4978332;28;20171;-92
2021/12/23 08:44:42;;;;;;;98.10;35.75;;;5.20;99.90;;;;;;4977784;28;20626;-93
2021/12/23 08:47:09;;;;;;;112.35;35.10;;;5.20;99.90;;;;;;4974416;28;20415;-92
2021/12/23 08:49:36;;;;;;;110.10;35.80;;;5.20;99.90;;;;;;4981888;28;20033;-93
2021/12/23 08:52:01;;;;;;;89.43;32.75;;;5.20;99.90;;;;;;4984910;28;20032;-92
2021/12/23 08:54:27;;;;;;;100.70;35.85;;;5.20;99.90;;;;;;4987660;28;20489;-91
2021/12/23 08:56:53;;;;;;;104.20;34.63;;;5.20;99.90;;;;;;5002926;28;20030;-92
2021/12/23 08:59:19;;;;;;;98.78;34.65;;;5.20;99.90;;;;;;5004439;28;20022;-91
2021/12/23 09:01:46;;;;;;;95.47;33.45;;;5.20;99.90;;;;;;4983390;28;20455;-91
2021/12/23 09:04:12;;;;;;;96.03;34.55;;;5.20;99.90;;;;;;4999926;28;20057;-92
2021/12/23 09:06:38;;;;;;;106.63;35.03;;;5.20;99.90;;;;;;4983021;28;20068;-92
2021/12/23 09:09:04;;;;;;;109.70;34.45;;;5.20;99.90;;;;;;4976276;28;20033;-91
2021/12/23 09:11:30;;;;;;;108.07;35.20;;;5.20;99.90;;;;;;4976275;28;20019;-92
2021/12/23 09:13:57;;;;;;;113.53;37.85;;;5.20;99.90;;;;;;4977596;28;20045;-92
2021/12/23 09:16:22;;;;;;;120.15;37.40;;;5.20;99.90;;;;;;4971288;28;20027;-92
2021/12/23 09:18:48;;;;;;;114.10;37.40;;;5.20;99.90;;;;;;4979445;28;20388;-93
2021/12/23 09:21:14;;;;;;;112.85;37.08;;;5.20;99.90;;;;;;4976483;28;20022;-92
2021/12/23 09:23:42;;;;;;;118.32;38.13;;;5.30;99.90;;;;;;4973577;28;20502;-93
2021/12/23 09:26:10;;;;;;;114.60;38.25;;;5.30;99.90;;;;;;4979682;28;20045;-91
2021/12/23 09:34:06;;;;;;;106.40;35.97;;;5.30;99.90;;;;;;4997794;28;20037;-93
2021/12/23 09:36:32;;;;;;;114.95;36.70;;;5.30;99.90;;;;;;4979117;28;20026;-91
2021/12/23 09:38:58;;;;;;;114.15;36.17;;;5.40;99.90;;;;;;4987875;28;20014;-91
2021/12/23 09:41:25;;;;;;;128.27;37.60;;;5.40;99.90;;;;;;4997920;28;20011;-92
2021/12/23 09:43:51;;;;;;;121.28;37.47;;;5.40;99.90;;;;;;4984503;28;20054;-92
2021/12/23 09:46:22;;;;;;;112.78;35.35;;;5.40;99.90;;;;;;4996173;28;20117;-93
2021/12/23 09:48:48;;;;;;;122.47;38.28;;;5.40;99.90;;;;;;4980267;28;20034;-92
2021/12/23 09:51:17;;;;;;;98.32;34.72;;;5.50;99.90;;;;;;4980172;28;20046;-92
2021/12/23 09:53:45;;;;;;;111.10;34.38;;;5.50;99.90;;;;;;4981750;28;20033;-93
2021/12/23 09:56:12;;;;;;;105.78;34.80;;;5.50;99.90;;;;;;4984938;28;20114;-93
2021/12/23 09:58:39;;;;;;;105.30;33.13;;;5.50;99.90;;;;;;4989269;28;20034;-92
2021/12/23 10:01:06;;;;;;;113.65;35.70;;;5.50;99.90;;;;;;4982170;28;20018;-92
2021/12/23 10:03:39;;;;;;;114.63;36.90;;;5.50;99.90;;;;;;4987412;28;20041;-95
2021/12/23 10:06:06;;;;;;;115.82;34.60;;;5.60;99.90;;;;;;4982422;28;20023;-92
2021/12/23 10:08:32;;;;;;;112.50;36.22;;;5.60;99.90;;;;;;4983128;28;20019;-94
2021/12/23 10:11:09;;;;;;;111.57;34.70;;;5.60;99.90;;;;;;4986468;28;20057;-93
2021/12/23 10:38:48;;;;;;;131.30;36.53;;;5.60;99.90;;;;;;4996329;28;20025;-91
2021/12/23 10:41:26;;;;;;;136.43;36.80;;;5.60;99.90;;;;;;4982945;28;20123;-91
2021/12/23 10:43:58;;;;;;;142.30;40.30;;;5.60;99.90;;;;;;4992583;28;20054;-92
2021/12/23 10:46:28;;;;;;;129.20;37.67;;;5.60;99.90;;;;;;4978830;28;20032;-92
2021/12/23 10:49:21;;;;;;;131.45;39.17;;;5.60;99.90;;;;;;4978490;28;20026;-92
2021/12/23 10:52:25;;;;;;;143.80;38.33;;;5.60;99.90;;;;;;4977956;28;20041;-92
2021/12/23 11:00:45;;;;;;;98.45;31.77;;;5.60;99.90;;;;;;4994726;28;20080;-90
2021/12/23 11:05:56;;;;;;;92.43;28.35;;;5.70;99.90;;;;;;4992502;28;20026;-92
2021/12/23 11:11:23;;;;;;;68.70;24.90;;;5.80;99.90;;;;;;4994898;28;20014;-92
2021/12/23 11:29:00;;;;;;;98.70;32.92;;;6.00;99.90;;;;;;4994010;28;20404;-92
2021/12/23 11:41:48;;;;;;;55.22;23.23;;;6.00;99.90;;;;;;4994658;28;20042;-92
2021/12/23 11:44:14;;;;;;;74.50;26.73;;;6.00;99.90;;;;;;4986778;28;20061;-92
2021/12/23 11:46:49;;;;;;;87.43;28.90;;;6.00;99.90;;;;;;4976833;28;20026;-89
2021/12/23 11:49:17;;;;;;;86.68;31.25;;;6.10;99.90;;;;;;4972427;28;20109;-93
2021/12/23 11:51:53;;;;;;;105.38;34.83;;;6.10;99.90;;;;;;4977212;28;20018;-90
2021/12/23 11:54:35;;;;;;;106.72;33.92;;;6.10;99.90;;;;;;4977246;28;20022;-90
2021/12/23 11:57:09;;;;;;;89.45;31.25;;;6.10;99.90;;;;;;4992961;28;20480;-92
2021/12/23 11:59:39;;;;;;;55.85;23.58;;;6.00;99.90;;;;;;4991759;28;20381;-92
2021/12/23 12:02:19;;;;;;;58.55;22.85;;;6.10;99.90;;;;;;4976531;28;20037;-92
2021/12/23 12:04:46;;;;;;;40.60;17.00;;;6.00;99.90;;;;;;4991850;28;20088;-92
2021/12/23 12:07:22;;;;;;;53.95;20.45;;;6.00;99.90;;;;;;4979440;28;20027;-93
2021/12/23 12:10:12;;;;;;;48.40;18.27;;;6.10;99.90;;;;;;5004071;28;20061;-91
2021/12/23 12:13:03;;;;;;;45.67;17.40;;;6.20;99.90;;;;;;4979394;28;20030;-93
2021/12/23 12:15:34;;;;;;;87.72;27.63;;;6.20;99.90;;;;;;4982524;28;20439;-92
2021/12/23 12:18:02;;;;;;;57.58;25.67;;;6.20;99.90;;;;;;4985465;28;20034;-91
2021/12/23 12:20:43;;;;;;;73.57;31.25;;;6.30;99.90;;;;;;4987785;28;20030;-90
2021/12/23 12:23:14;;;;;;;;;;;6.30;99.90;;;;;;4985866;28;20065;-90
2021/12/23 12:25:48;;;;;;;41.50;17.45;;;6.30;99.90;;;;;;4983133;28;20394;-92
2021/12/23 12:28:22;;;;;;;50.25;19.63;;;6.20;99.90;;;;;;4991926;28;20034;-91
2021/12/23 12:30:56;;;;;;;49.65;18.35;;;6.30;99.90;;;;;;4976830;28;20034;-90
2021/12/23 12:33:25;;;;;;;48.38;19.52;;;6.30;99.90;;;;;;4975377;28;20031;-91
2021/12/23 12:36:05;;;;;;;50.38;18.77;;;6.30;99.90;;;;;;4977475;28;20030;-91
2021/12/23 12:38:35;;;;;;;51.75;22.30;;;6.40;99.90;;;;;;4974523;28;20106;-90
2021/12/23 12:41:25;;;;;;;47.35;19.63;;;6.40;99.90;;;;;;4991499;28;20022;-91
2021/12/23 12:44:01;;;;;;;59.85;21.50;;;6.40;99.90;;;;;;4986600;28;20062;-93
2021/12/23 12:46:45;;;;;;;47.75;18.70;;;6.40;99.90;;;;;;4991764;28;20105;-92
2021/12/23 12:49:22;;;;;;;45.45;17.65;;;6.50;99.90;;;;;;4975948;28;20034;-91
2021/12/23 12:51:50;;;;;;;62.83;23.33;;;6.50;99.90;;;;;;4973971;28;20034;-90
2021/12/23 12:54:31;;;;;;;58.28;23.52;;;6.50;99.90;;;;;;4974906;28;20034;-92
2021/12/23 12:57:07;;;;;;;51.67;20.88;;;6.60;99.90;;;;;;4983595;28;20117;-91
2021/12/23 12:59:40;;;;;;;51.70;20.67;;;6.70;99.90;;;;;;4983666;28;20369;-92
2021/12/23 13:02:25;;;;;;;59.97;23.70;;;6.60;99.90;;;;;;4973577;28;20623;-91
2021/12/23 13:04:58;;;;;;;66.57;22.80;;;6.70;99.90;;;;;;4976587;28;20424;-91
2021/12/23 13:07:28;;;;;;;54.47;22.00;;;6.70;99.90;;;;;;4975883;28;20026;-92
2021/12/23 13:10:01;;;;;;;62.65;23.92;;;6.80;99.90;;;;;;4977193;28;20118;-91
2021/12/23 13:12:33;;;;;;;52.97;21.05;;;6.80;99.90;;;;;;4976858;28;20031;-92
2021/12/23 13:15:18;;;;;;;57.38;21.85;;;6.80;99.90;;;;;;4977066;28;20030;-91
2021/12/23 13:17:56;;;;;;;55.40;20.92;;;6.80;99.90;;;;;;4976929;28;20539;-91
2021/12/23 13:20:44;;;;;;;50.85;20.40;;;6.90;99.90;;;;;;4976224;28;20030;-91
2021/12/23 13:23:15;;;;;;;55.70;21.65;;;6.90;99.90;;;;;;4972987;28;20052;-92
2021/12/23 13:25:54;;;;;;;51.08;19.42;;;7.00;99.90;;;;;;4976970;28;20050;-91
2021/12/23 13:28:35;;;;;;;54.78;21.50;;;7.00;99.90;;;;;;4973629;28;20029;-91
2021/12/23 13:31:04;;;;;;;44.85;18.80;;;7.00;99.90;;;;;;4986473;28;20042;-91
2021/12/23 13:33:38;;;;;;;40.60;17.65;;;7.00;99.90;;;;;;4966444;28;20018;-92
2021/12/23 13:36:44;;;;;;;47.80;18.45;;;7.00;99.90;;;;;;4973122;28;20034;-92
2021/12/23 13:39:24;;;;;;;50.92;18.92;;;7.00;99.90;;;;;;4975150;28;20112;-92
2021/12/23 13:41:53;;;;;;;50.33;19.33;;;7.10;99.90;;;;;;4974839;28;20035;-92
2021/12/23 13:44:20;;;;;;;44.97;17.48;;;7.10;99.90;;;;;;4972795;28;20078;-91
2021/12/23 13:47:00;;;;;;;37.75;15.57;;;7.10;99.90;;;;;;4981690;28;20090;-92
2021/12/23 13:49:47;;;;;;;60.47;23.67;;;7.20;99.90;;;;;;4985731;28;20019;-91
2021/12/23 13:52:35;;;;;;;73.40;27.42;;;7.20;99.90;;;;;;4977986;28;20023;-91
2021/12/23 13:55:10;;;;;;;84.85;29.10;;;7.20;99.90;;;;;;4984435;28;20058;-92
2021/12/23 13:57:41;;;;;;;108.90;34.83;;;7.20;99.90;;;;;;4979739;28;20113;-91
2021/12/23 14:00:13;;;;;;;;;;;7.20;99.90;;;;;;4997980;28;20034;-92
2021/12/23 14:02:39;;;;;;;64.47;23.85;;;7.20;99.90;;;;;;4991288;28;20430;-90
2021/12/23 14:05:07;;;;;;;69.32;23.88;;;7.10;99.90;;;;;;4978817;28;20026;-90
2021/12/23 14:07:36;;;;;;;65.10;23.90;;;7.00;99.90;;;;;;4979215;28;20090;-91
2021/12/23 14:10:09;;;;;;;68.28;24.20;;;7.00;99.90;;;;;;4978594;28;20033;-91
2021/12/23 14:12:51;;;;;;;57.97;21.13;;;7.00;99.90;;;;;;4979294;28;20030;-91